sensor_id;sensor_type;location;lat;lon;timestamp;P1;durP1;ratioP1;P2;durP2;ratioP2
3571;SDS011;7958;53.024;12.970;2022-10-31T00:00:25;14.10;;;12.37;;
3571;SDS011;7958;53.024;12.970;2022-10-31T00:02:51;15.10;;;13.50;;
3571;SDS011;7958;53.024;12.970;2022-10-31T00:05:17;15.80;;;14.10;;
3571;SDS011;7958;53.024;12.970;2022-10-31T00:07:45;16.53;;;13.60;;
3571;SDS011;7958;53.024;12.970;2022-10-31T00:10:12;15.30;;;13.37;;
3571;SDS011;7958;53.024;12.970;2022-10-31T00:12:38;17.70;;;14.00;;
3571;SDS011;7958;53.024;12.970;2022-10-31T00:15:05;15.60;;;13.10;;
3571;SDS011;7958;53.024;12.970;2022-10-31T00:17:34;17.07;;;13.83;;
3571;SDS011;7958;53.024;12.970;2022-10-31T00:20:01;15.03;;;11.97;;
3571;SDS011;7958;53.024;12.970;2022-10-31T00:22:28;14.97;;;12.03;;
3571;SDS011;7958;53.024;12.970;2022-10-31T00:24:56;15.93;;;12.10;;
3571;SDS011;7958;53.024;12.970;2022-10-31T00:27:22;18.60;;;12.50;;
3571;SDS011;7958;53.024;12.970;2022-10-31T00:29:48;16.40;;;11.57;;
3571;SDS011;7958;53.024;12.970;2022-10-31T00:32:15;16.33;;;12.03;;
3571;SDS011;7958;53.024;12.970;2022-10-31T00:34:41;14.13;;;10.20;;
3571;SDS011;7958;53.024;12.970;2022-10-31T00:37:07;18.50;;;10.73;;
3571;SDS011;7958;53.024;12.970;2022-10-31T00:39:34;13.10;;;9.73;;
3571;SDS011;7958;53.024;12.970;2022-10-31T00:42:01;11.27;;;9.53;;
3571;SDS011;7958;53.024;12.970;2022-10-31T00:44:28;12.10;;;10.10;;
3571;SDS011;7958;53.024;12.970;2022-10-31T00:46:54;11.30;;;9.13;;
3571;SDS011;7958;53.024;12.970;2022-10-31T00:49:20;12.13;;;9.57;;
3571;SDS011;7958;53.024;12.970;2022-10-31T00:51:47;15.63;;;10.73;;
3571;SDS011;7958;53.024;12.970;2022-10-31T00:54:14;14.37;;;9.80;;
3571;SDS011;7958;53.024;12.970;2022-10-31T00:56:40;15.40;;;9.97;;
3571;SDS011;7958;53.024;12.970;2022-10-31T00:59:08;15.10;;;9.30;;
3571;SDS011;7958;53.024;12.970;2022-10-31T01:01:34;15.23;;;9.80;;
3571;SDS011;7958;53.024;12.970;2022-10-31T01:04:01;10.57;;;8.80;;
3571;SDS011;7958;53.024;12.970;2022-10-31T01:06:27;14.63;;;9.13;;
3571;SDS011;7958;53.024;12.970;2022-10-31T01:08:54;12.73;;;8.70;;
3571;SDS011;7958;53.024;12.970;2022-10-31T01:11:21;11.30;;;8.87;;
3571;SDS011;7958;53.024;12.970;2022-10-31T01:13:49;10.93;;;8.87;;
3571;SDS011;7958;53.024;12.970;2022-10-31T01:16:18;11.13;;;8.60;;
3571;SDS011;7958;53.024;12.970;2022-10-31T01:18:46;14.30;;;9.33;;
3571;SDS011;7958;53.024;12.970;2022-10-31T01:21:13;16.20;;;8.80;;
3571;SDS011;7958;53.024;12.970;2022-10-31T01:23:41;11.27;;;8.97;;
3571;SDS011;7958;53.024;12.970;2022-10-31T01:26:08;13.47;;;9.00;;
3571;SDS011;7958;53.024;12.970;2022-10-31T01:28:38;15.93;;;8.33;;
3571;SDS011;7958;53.024;12.970;2022-10-31T01:31:05;8.70;;;7.03;;
3571;SDS011;7958;53.024;12.970;2022-10-31T01:33:34;6.30;;;5.80;;
3571;SDS011;7958;53.024;12.970;2022-10-31T01:36:01;7.80;;;6.00;;
3571;SDS011;7958;53.024;12.970;2022-10-31T01:38:36;13.23;;;7.73;;
3571;SDS011;7958;53.024;12.970;2022-10-31T01:41:02;11.33;;;7.50;;
3571;SDS011;7958;53.024;12.970;2022-10-31T01:43:41;16.67;;;7.40;;
3571;SDS011;7958;53.024;12.970;2022-10-31T01:46:08;11.17;;;6.60;;
3571;SDS011;7958;53.024;12.970;2022-10-31T01:48:36;19.57;;;6.40;;
3571;SDS011;7958;53.024;12.970;2022-10-31T01:51:03;13.00;;;7.47;;
3571;SDS011;7958;53.024;12.970;2022-10-31T01:53:30;12.67;;;7.70;;
3571;SDS011;7958;53.024;12.970;2022-10-31T01:55:57;15.10;;;10.27;;
3571;SDS011;7958;53.024;12.970;2022-10-31T01:58:25;11.87;;;8.17;;
3571;SDS011;7958;53.024;12.970;2022-10-31T02:00:55;27.53;;;8.87;;
3571;SDS011;7958;53.024;12.970;2022-10-31T02:03:23;14.83;;;8.13;;
3571;SDS011;7958;53.024;12.970;2022-10-31T02:05:51;9.33;;;8.30;;
3571;SDS011;7958;53.024;12.970;2022-10-31T02:08:20;18.40;;;9.53;;
3571;SDS011;7958;53.024;12.970;2022-10-31T02:10:49;17.80;;;10.00;;
3571;SDS011;7958;53.024;12.970;2022-10-31T02:13:16;10.37;;;8.87;;
3571;SDS011;7958;53.024;12.970;2022-10-31T02:15:43;11.53;;;8.80;;
3571;SDS011;7958;53.024;12.970;2022-10-31T02:18:10;14.40;;;8.63;;
3571;SDS011;7958;53.024;12.970;2022-10-31T02:20:39;12.23;;;8.63;;
3571;SDS011;7958;53.024;12.970;2022-10-31T02:32:27;11.13;;;7.30;;
3571;SDS011;7958;53.024;12.970;2022-10-31T02:34:57;9.13;;;7.53;;
3571;SDS011;7958;53.024;12.970;2022-10-31T02:37:25;16.30;;;8.80;;
3571;SDS011;7958;53.024;12.970;2022-10-31T02:39:56;13.13;;;8.50;;
3571;SDS011;7958;53.024;12.970;2022-10-31T02:42:29;16.53;;;8.00;;
3571;SDS011;7958;53.024;12.970;2022-10-31T02:45:00;9.63;;;7.10;;
3571;SDS011;7958;53.024;12.970;2022-10-31T02:47:32;14.60;;;8.87;;
3571;SDS011;7958;53.024;12.970;2022-10-31T02:50:02;12.80;;;8.80;;
3571;SDS011;7958;53.024;12.970;2022-10-31T02:52:31;11.53;;;8.30;;
3571;SDS011;7958;53.024;12.970;2022-10-31T02:55:08;10.23;;;7.93;;
3571;SDS011;7958;53.024;12.970;2022-10-31T02:57:36;11.70;;;8.13;;
3571;SDS011;7958;53.024;12.970;2022-10-31T03:00:04;13.17;;;8.30;;
3571;SDS011;7958;53.024;12.970;2022-10-31T03:02:38;8.60;;;7.30;;
3571;SDS011;7958;53.024;12.970;2022-10-31T03:05:22;12.07;;;7.37;;
3571;SDS011;7958;53.024;12.970;2022-10-31T03:08:07;9.67;;;7.33;;
3571;SDS011;7958;53.024;12.970;2022-10-31T03:10:40;10.10;;;7.23;;
3571;SDS011;7958;53.024;12.970;2022-10-31T03:13:10;12.77;;;8.57;;
3571;SDS011;7958;53.024;12.970;2022-10-31T03:15:39;11.03;;;8.20;;
3571;SDS011;7958;53.024;12.970;2022-10-31T03:18:09;9.90;;;7.73;;
3571;SDS011;7958;53.024;12.970;2022-10-31T03:20:38;10.60;;;7.97;;
3571;SDS011;7958;53.024;12.970;2022-10-31T03:23:07;17.50;;;8.57;;
3571;SDS011;7958;53.024;12.970;2022-10-31T03:25:36;16.67;;;8.47;;
3571;SDS011;7958;53.024;12.970;2022-10-31T03:28:04;20.37;;;10.13;;
3571;SDS011;7958;53.024;12.970;2022-10-31T03:30:33;18.07;;;9.90;;
3571;SDS011;7958;53.024;12.970;2022-10-31T03:33:02;19.20;;;8.43;;
3571;SDS011;7958;53.024;12.970;2022-10-31T03:35:32;20.50;;;10.27;;
3571;SDS011;7958;53.024;12.970;2022-10-31T03:37:59;19.90;;;10.57;;
3571;SDS011;7958;53.024;12.970;2022-10-31T03:40:27;14.70;;;8.23;;
3571;SDS011;7958;53.024;12.970;2022-10-31T03:42:55;10.60;;;8.60;;
3571;SDS011;7958;53.024;12.970;2022-10-31T03:45:25;11.27;;;7.80;;
3571;SDS011;7958;53.024;12.970;2022-10-31T03:47:54;12.33;;;8.10;;
3571;SDS011;7958;53.024;12.970;2022-10-31T03:50:22;11.50;;;8.40;;
3571;SDS011;7958;53.024;12.970;2022-10-31T03:52:52;11.30;;;8.70;;
3571;SDS011;7958;53.024;12.970;2022-10-31T03:55:24;13.90;;;8.60;;
3571;SDS011;7958;53.024;12.970;2022-10-31T03:57:54;12.60;;;9.17;;
3571;SDS011;7958;53.024;12.970;2022-10-31T04:00:24;12.17;;;8.93;;
3571;SDS011;7958;53.024;12.970;2022-10-31T04:02:51;14.13;;;9.20;;
3571;SDS011;7958;53.024;12.970;2022-10-31T04:05:21;12.23;;;9.07;;
3571;SDS011;7958;53.024;12.970;2022-10-31T04:07:49;11.80;;;8.60;;
3571;SDS011;7958;53.024;12.970;2022-10-31T04:10:21;15.30;;;9.77;;
3571;SDS011;7958;53.024;12.970;2022-10-31T04:12:50;11.27;;;8.23;;
3571;SDS011;7958;53.024;12.970;2022-10-31T04:15:20;9.90;;;7.47;;
3571;SDS011;7958;53.024;12.970;2022-10-31T04:17:48;9.63;;;8.20;;
3571;SDS011;7958;53.024;12.970;2022-10-31T04:20:16;9.03;;;7.13;;
3571;SDS011;7958;53.024;12.970;2022-10-31T04:22:43;10.10;;;7.83;;
3571;SDS011;7958;53.024;12.970;2022-10-31T04:25:11;9.17;;;7.47;;
3571;SDS011;7958;53.024;12.970;2022-10-31T04:27:37;10.00;;;7.70;;
3571;SDS011;7958;53.024;12.970;2022-10-31T04:30:04;10.23;;;8.43;;
3571;SDS011;7958;53.024;12.970;2022-10-31T04:32:31;9.70;;;7.93;;
3571;SDS011;7958;53.024;12.970;2022-10-31T04:34:58;10.07;;;8.17;;
3571;SDS011;7958;53.024;12.970;2022-10-31T04:37:25;11.20;;;8.30;;
3571;SDS011;7958;53.024;12.970;2022-10-31T04:39:51;10.30;;;8.10;;
3571;SDS011;7958;53.024;12.970;2022-10-31T04:42:19;7.37;;;6.67;;
3571;SDS011;7958;53.024;12.970;2022-10-31T04:44:46;11.90;;;8.23;;
3571;SDS011;7958;53.024;12.970;2022-10-31T04:47:12;12.13;;;9.07;;
3571;SDS011;7958;53.024;12.970;2022-10-31T04:49:38;11.23;;;8.20;;
3571;SDS011;7958;53.024;12.970;2022-10-31T04:52:05;13.03;;;8.67;;
3571;SDS011;7958;53.024;12.970;2022-10-31T04:54:33;13.20;;;7.60;;
3571;SDS011;7958;53.024;12.970;2022-10-31T04:56:59;11.33;;;8.03;;
3571;SDS011;7958;53.024;12.970;2022-10-31T04:59:27;10.03;;;7.43;;
3571;SDS011;7958;53.024;12.970;2022-10-31T05:01:54;10.33;;;7.80;;
3571;SDS011;7958;53.024;12.970;2022-10-31T05:04:20;14.40;;;9.00;;
3571;SDS011;7958;53.024;12.970;2022-10-31T05:06:47;11.10;;;7.40;;
3571;SDS011;7958;53.024;12.970;2022-10-31T05:09:13;9.53;;;7.93;;
3571;SDS011;7958;53.024;12.970;2022-10-31T05:11:39;7.57;;;6.87;;
3571;SDS011;7958;53.024;12.970;2022-10-31T05:14:06;12.03;;;8.30;;
3571;SDS011;7958;53.024;12.970;2022-10-31T05:16:35;11.60;;;7.60;;
3571;SDS011;7958;53.024;12.970;2022-10-31T05:19:01;9.90;;;7.47;;
3571;SDS011;7958;53.024;12.970;2022-10-31T05:21:27;11.30;;;7.70;;
3571;SDS011;7958;53.024;12.970;2022-10-31T05:23:54;12.80;;;6.70;;
3571;SDS011;7958;53.024;12.970;2022-10-31T05:26:20;8.90;;;6.30;;
3571;SDS011;7958;53.024;12.970;2022-10-31T05:28:47;10.17;;;6.30;;
3571;SDS011;7958;53.024;12.970;2022-10-31T05:31:13;6.60;;;6.00;;
3571;SDS011;7958;53.024;12.970;2022-10-31T05:33:41;8.27;;;5.63;;
3571;SDS011;7958;53.024;12.970;2022-10-31T05:36:07;5.10;;;4.63;;
3571;SDS011;7958;53.024;12.970;2022-10-31T05:38:34;5.80;;;5.00;;
3571;SDS011;7958;53.024;12.970;2022-10-31T05:41:00;6.70;;;5.13;;
3571;SDS011;7958;53.024;12.970;2022-10-31T05:43:27;10.13;;;6.37;;
3571;SDS011;7958;53.024;12.970;2022-10-31T05:45:54;8.10;;;6.67;;
3571;SDS011;7958;53.024;12.970;2022-10-31T05:48:21;8.37;;;6.30;;
3571;SDS011;7958;53.024;12.970;2022-10-31T05:50:48;11.10;;;7.00;;
3571;SDS011;7958;53.024;12.970;2022-10-31T05:53:15;10.50;;;7.07;;
3571;SDS011;7958;53.024;12.970;2022-10-31T05:55:42;18.70;;;8.30;;
3571;SDS011;7958;53.024;12.970;2022-10-31T05:58:09;12.10;;;8.13;;
3571;SDS011;7958;53.024;12.970;2022-10-31T06:00:36;13.07;;;8.53;;
3571;SDS011;7958;53.024;12.970;2022-10-31T06:03:03;12.57;;;7.47;;
3571;SDS011;7958;53.024;12.970;2022-10-31T06:05:30;16.07;;;9.20;;
3571;SDS011;7958;53.024;12.970;2022-10-31T06:07:59;9.37;;;7.93;;
3571;SDS011;7958;53.024;12.970;2022-10-31T06:10:25;13.50;;;8.40;;
3571;SDS011;7958;53.024;12.970;2022-10-31T06:12:52;10.90;;;7.77;;
3571;SDS011;7958;53.024;12.970;2022-10-31T06:15:18;11.13;;;8.10;;
3571;SDS011;7958;53.024;12.970;2022-10-31T06:17:46;16.23;;;7.27;;
3571;SDS011;7958;53.024;12.970;2022-10-31T06:20:12;10.17;;;7.53;;
3571;SDS011;7958;53.024;12.970;2022-10-31T06:22:39;12.73;;;7.40;;
3571;SDS011;7958;53.024;12.970;2022-10-31T06:25:07;17.70;;;8.83;;
3571;SDS011;7958;53.024;12.970;2022-10-31T06:27:34;14.37;;;9.80;;
3571;SDS011;7958;53.024;12.970;2022-10-31T06:30:00;12.97;;;9.00;;
3571;SDS011;7958;53.024;12.970;2022-10-31T06:32:26;20.30;;;9.87;;
3571;SDS011;7958;53.024;12.970;2022-10-31T06:34:53;12.13;;;9.57;;
3571;SDS011;7958;53.024;12.970;2022-10-31T06:37:19;13.23;;;8.57;;
3571;SDS011;7958;53.024;12.970;2022-10-31T06:39:46;15.03;;;8.90;;
3571;SDS011;7958;53.024;12.970;2022-10-31T06:42:16;11.17;;;7.67;;
3571;SDS011;7958;53.024;12.970;2022-10-31T06:44:43;13.27;;;7.30;;
3571;SDS011;7958;53.024;12.970;2022-10-31T06:47:09;11.50;;;7.90;;
3571;SDS011;7958;53.024;12.970;2022-10-31T06:49:35;15.53;;;8.43;;
3571;SDS011;7958;53.024;12.970;2022-10-31T06:52:02;12.47;;;8.17;;
3571;SDS011;7958;53.024;12.970;2022-10-31T06:54:29;13.67;;;7.83;;
3571;SDS011;7958;53.024;12.970;2022-10-31T06:56:55;15.37;;;9.23;;
3571;SDS011;7958;53.024;12.970;2022-10-31T06:59:23;19.30;;;9.20;;
3571;SDS011;7958;53.024;12.970;2022-10-31T07:01:50;12.83;;;8.67;;
3571;SDS011;7958;53.024;12.970;2022-10-31T07:04:16;16.47;;;8.43;;
3571;SDS011;7958;53.024;12.970;2022-10-31T07:06:43;15.33;;;9.57;;
3571;SDS011;7958;53.024;12.970;2022-10-31T07:09:10;13.50;;;7.53;;
3571;SDS011;7958;53.024;12.970;2022-10-31T07:11:36;11.63;;;7.83;;
3571;SDS011;7958;53.024;12.970;2022-10-31T07:14:02;10.40;;;8.20;;
3571;SDS011;7958;53.024;12.970;2022-10-31T07:16:30;13.00;;;7.57;;
3571;SDS011;7958;53.024;12.970;2022-10-31T07:18:57;10.40;;;6.70;;
3571;SDS011;7958;53.024;12.970;2022-10-31T07:21:23;17.43;;;8.10;;
3571;SDS011;7958;53.024;12.970;2022-10-31T07:23:49;14.90;;;8.63;;
3571;SDS011;7958;53.024;12.970;2022-10-31T07:26:18;10.77;;;7.70;;
3571;SDS011;7958;53.024;12.970;2022-10-31T07:28:45;10.53;;;7.43;;
3571;SDS011;7958;53.024;12.970;2022-10-31T07:31:11;11.00;;;6.40;;
3571;SDS011;7958;53.024;12.970;2022-10-31T07:33:39;10.30;;;6.87;;
3571;SDS011;7958;53.024;12.970;2022-10-31T07:36:06;9.93;;;7.50;;
3571;SDS011;7958;53.024;12.970;2022-10-31T07:38:33;8.87;;;6.97;;
3571;SDS011;7958;53.024;12.970;2022-10-31T07:40:59;14.73;;;8.00;;
3571;SDS011;7958;53.024;12.970;2022-10-31T07:43:26;17.57;;;8.50;;
3571;SDS011;7958;53.024;12.970;2022-10-31T07:45:53;15.60;;;10.47;;
3571;SDS011;7958;53.024;12.970;2022-10-31T07:48:19;14.13;;;10.57;;
3571;SDS011;7958;53.024;12.970;2022-10-31T07:50:47;17.90;;;11.20;;
3571;SDS011;7958;53.024;12.970;2022-10-31T07:53:14;17.57;;;10.77;;
3571;SDS011;7958;53.024;12.970;2022-10-31T07:55:41;12.90;;;9.90;;
3571;SDS011;7958;53.024;12.970;2022-10-31T07:58:09;15.53;;;10.90;;
3571;SDS011;7958;53.024;12.970;2022-10-31T08:00:37;17.73;;;10.37;;
3571;SDS011;7958;53.024;12.970;2022-10-31T08:03:04;15.37;;;10.57;;
3571;SDS011;7958;53.024;12.970;2022-10-31T08:05:32;16.00;;;10.37;;
3571;SDS011;7958;53.024;12.970;2022-10-31T08:08:00;14.53;;;10.33;;
3571;SDS011;7958;53.024;12.970;2022-10-31T08:10:27;11.73;;;9.57;;
3571;SDS011;7958;53.024;12.970;2022-10-31T08:12:55;14.80;;;10.17;;
3571;SDS011;7958;53.024;12.970;2022-10-31T08:15:22;16.60;;;10.73;;
3571;SDS011;7958;53.024;12.970;2022-10-31T08:17:50;12.20;;;10.00;;
3571;SDS011;7958;53.024;12.970;2022-10-31T08:20:16;13.53;;;10.00;;
3571;SDS011;7958;53.024;12.970;2022-10-31T08:22:43;16.03;;;9.90;;
3571;SDS011;7958;53.024;12.970;2022-10-31T08:25:20;12.63;;;8.50;;
3571;SDS011;7958;53.024;12.970;2022-10-31T08:27:48;10.40;;;8.90;;
3571;SDS011;7958;53.024;12.970;2022-10-31T08:30:15;12.27;;;7.43;;
3571;SDS011;7958;53.024;12.970;2022-10-31T08:32:42;11.87;;;8.97;;
3571;SDS011;7958;53.024;12.970;2022-10-31T08:35:08;10.33;;;8.20;;
3571;SDS011;7958;53.024;12.970;2022-10-31T08:37:35;14.67;;;9.50;;
3571;SDS011;7958;53.024;12.970;2022-10-31T08:40:01;11.10;;;8.90;;
3571;SDS011;7958;53.024;12.970;2022-10-31T08:42:29;14.03;;;9.80;;
3571;SDS011;7958;53.024;12.970;2022-10-31T08:44:56;15.60;;;9.80;;
3571;SDS011;7958;53.024;12.970;2022-10-31T08:47:22;15.50;;;11.07;;
3571;SDS011;7958;53.024;12.970;2022-10-31T08:49:49;14.10;;;10.70;;
3571;SDS011;7958;53.024;12.970;2022-10-31T08:52:15;13.97;;;9.90;;
3571;SDS011;7958;53.024;12.970;2022-10-31T08:54:42;14.87;;;10.60;;
3571;SDS011;7958;53.024;12.970;2022-10-31T08:57:08;17.20;;;9.63;;
3571;SDS011;7958;53.024;12.970;2022-10-31T08:59:37;21.47;;;11.27;;
3571;SDS011;7958;53.024;12.970;2022-10-31T09:02:04;13.13;;;10.10;;
3571;SDS011;7958;53.024;12.970;2022-10-31T09:04:31;18.20;;;11.10;;
3571;SDS011;7958;53.024;12.970;2022-10-31T09:06:58;16.27;;;11.30;;
3571;SDS011;7958;53.024;12.970;2022-10-31T09:09:25;15.73;;;10.47;;
3571;SDS011;7958;53.024;12.970;2022-10-31T09:11:51;17.17;;;11.43;;
3571;SDS011;7958;53.024;12.970;2022-10-31T09:14:18;16.20;;;11.43;;
3571;SDS011;7958;53.024;12.970;2022-10-31T09:16:46;14.53;;;11.47;;
3571;SDS011;7958;53.024;12.970;2022-10-31T09:19:13;16.20;;;12.10;;
3571;SDS011;7958;53.024;12.970;2022-10-31T09:21:40;18.53;;;12.43;;
3571;SDS011;7958;53.024;12.970;2022-10-31T09:24:06;19.93;;;13.03;;
3571;SDS011;7958;53.024;12.970;2022-10-31T09:26:32;17.43;;;12.57;;
3571;SDS011;7958;53.024;12.970;2022-10-31T09:28:59;17.73;;;13.17;;
3571;SDS011;7958;53.024;12.970;2022-10-31T09:31:26;19.10;;;14.10;;
3571;SDS011;7958;53.024;12.970;2022-10-31T09:33:54;25.60;;;14.47;;
3571;SDS011;7958;53.024;12.970;2022-10-31T09:36:21;22.80;;;14.30;;
3571;SDS011;7958;53.024;12.970;2022-10-31T09:38:47;20.03;;;14.10;;
3571;SDS011;7958;53.024;12.970;2022-10-31T09:41:16;27.30;;;16.00;;
3571;SDS011;7958;53.024;12.970;2022-10-31T09:43:48;26.20;;;16.17;;
3571;SDS011;7958;53.024;12.970;2022-10-31T09:46:20;25.00;;;15.60;;
3571;SDS011;7958;53.024;12.970;2022-10-31T09:48:55;25.23;;;16.07;;
3571;SDS011;7958;53.024;12.970;2022-10-31T09:51:37;29.47;;;16.70;;
3571;SDS011;7958;53.024;12.970;2022-10-31T09:54:06;31.07;;;16.70;;
3571;SDS011;7958;53.024;12.970;2022-10-31T09:56:35;28.63;;;16.60;;
3571;SDS011;7958;53.024;12.970;2022-10-31T09:59:02;33.43;;;17.70;;
3571;SDS011;7958;53.024;12.970;2022-10-31T10:01:35;30.53;;;17.33;;
3571;SDS011;7958;53.024;12.970;2022-10-31T10:04:27;25.40;;;18.60;;
3571;SDS011;7958;53.024;12.970;2022-10-31T10:06:57;29.13;;;18.97;;
3571;SDS011;7958;53.024;12.970;2022-10-31T10:09:25;29.00;;;18.80;;
3571;SDS011;7958;53.024;12.970;2022-10-31T10:11:54;24.53;;;18.50;;
3571;SDS011;7958;53.024;12.970;2022-10-31T10:14:33;31.50;;;18.37;;
3571;SDS011;7958;53.024;12.970;2022-10-31T10:17:16;31.90;;;19.97;;
3571;SDS011;7958;53.024;12.970;2022-10-31T10:22:41;27.00;;;17.70;;
3571;SDS011;7958;53.024;12.970;2022-10-31T10:25:14;27.03;;;18.63;;
3571;SDS011;7958;53.024;12.970;2022-10-31T10:27:47;24.90;;;18.70;;
3571;SDS011;7958;53.024;12.970;2022-10-31T10:30:17;27.93;;;19.03;;
3571;SDS011;7958;53.024;12.970;2022-10-31T10:32:46;28.90;;;19.23;;
3571;SDS011;7958;53.024;12.970;2022-10-31T10:35:19;26.87;;;18.80;;
3571;SDS011;7958;53.024;12.970;2022-10-31T10:37:49;26.87;;;19.00;;
3571;SDS011;7958;53.024;12.970;2022-10-31T10:40:17;28.43;;;18.60;;
3571;SDS011;7958;53.024;12.970;2022-10-31T10:42:50;30.87;;;18.83;;
3571;SDS011;7958;53.024;12.970;2022-10-31T10:45:39;28.03;;;18.87;;
3571;SDS011;7958;53.024;12.970;2022-10-31T10:48:25;27.97;;;19.73;;
3571;SDS011;7958;53.024;12.970;2022-10-31T10:50:58;26.07;;;19.07;;
3571;SDS011;7958;53.024;12.970;2022-10-31T10:53:31;29.37;;;21.60;;
3571;SDS011;7958;53.024;12.970;2022-10-31T10:56:15;28.47;;;20.10;;
3571;SDS011;7958;53.024;12.970;2022-10-31T10:58:43;27.40;;;19.73;;
3571;SDS011;7958;53.024;12.970;2022-10-31T11:01:11;27.07;;;19.03;;
3571;SDS011;7958;53.024;12.970;2022-10-31T11:03:38;26.00;;;20.43;;
3571;SDS011;7958;53.024;12.970;2022-10-31T11:06:16;28.80;;;20.23;;
3571;SDS011;7958;53.024;12.970;2022-10-31T11:08:47;27.60;;;19.30;;
3571;SDS011;7958;53.024;12.970;2022-10-31T11:11:19;30.63;;;20.47;;
3571;SDS011;7958;53.024;12.970;2022-10-31T11:13:52;35.27;;;21.00;;
3571;SDS011;7958;53.024;12.970;2022-10-31T11:16:27;28.03;;;19.20;;
3571;SDS011;7958;53.024;12.970;2022-10-31T11:19:04;28.10;;;18.20;;
3571;SDS011;7958;53.024;12.970;2022-10-31T11:21:34;29.40;;;19.43;;
3571;SDS011;7958;53.024;12.970;2022-10-31T11:24:02;27.50;;;18.60;;
3571;SDS011;7958;53.024;12.970;2022-10-31T11:26:29;31.93;;;19.97;;
3571;SDS011;7958;53.024;12.970;2022-10-31T11:29:00;29.83;;;19.90;;
3571;SDS011;7958;53.024;12.970;2022-10-31T11:31:28;26.10;;;18.53;;
3571;SDS011;7958;53.024;12.970;2022-10-31T11:33:55;26.43;;;18.47;;
3571;SDS011;7958;53.024;12.970;2022-10-31T11:36:25;30.90;;;18.53;;
3571;SDS011;7958;53.024;12.970;2022-10-31T11:38:53;24.53;;;17.90;;
3571;SDS011;7958;53.024;12.970;2022-10-31T11:41:23;25.73;;;18.73;;
3571;SDS011;7958;53.024;12.970;2022-10-31T11:43:54;23.93;;;17.00;;
3571;SDS011;7958;53.024;12.970;2022-10-31T11:46:24;22.73;;;16.70;;
3571;SDS011;7958;53.024;12.970;2022-10-31T11:48:54;23.33;;;16.50;;
3571;SDS011;7958;53.024;12.970;2022-10-31T11:51:22;32.33;;;19.63;;
3571;SDS011;7958;53.024;12.970;2022-10-31T11:53:51;26.33;;;18.10;;
3571;SDS011;7958;53.024;12.970;2022-10-31T11:56:20;23.83;;;18.40;;
3571;SDS011;7958;53.024;12.970;2022-10-31T11:58:54;26.00;;;17.30;;
3571;SDS011;7958;53.024;12.970;2022-10-31T12:01:23;24.80;;;17.40;;
3571;SDS011;7958;53.024;12.970;2022-10-31T12:03:54;24.40;;;17.70;;
3571;SDS011;7958;53.024;12.970;2022-10-31T12:06:28;22.80;;;17.17;;
3571;SDS011;7958;53.024;12.970;2022-10-31T12:08:56;22.90;;;16.13;;
3571;SDS011;7958;53.024;12.970;2022-10-31T12:11:31;25.63;;;18.50;;
3571;SDS011;7958;53.024;12.970;2022-10-31T12:14:06;25.57;;;18.70;;
3571;SDS011;7958;53.024;12.970;2022-10-31T12:16:39;21.40;;;17.67;;
3571;SDS011;7958;53.024;12.970;2022-10-31T12:19:11;24.03;;;17.87;;
3571;SDS011;7958;53.024;12.970;2022-10-31T12:21:44;23.40;;;17.17;;
3571;SDS011;7958;53.024;12.970;2022-10-31T12:24:22;23.20;;;17.90;;
3571;SDS011;7958;53.024;12.970;2022-10-31T12:27:04;27.00;;;20.30;;
3571;SDS011;7958;53.024;12.970;2022-10-31T12:29:43;27.20;;;18.70;;
3571;SDS011;7958;53.024;12.970;2022-10-31T12:32:24;24.40;;;17.77;;
3571;SDS011;7958;53.024;12.970;2022-10-31T12:37:55;33.50;;;22.60;;
3571;SDS011;7958;53.024;12.970;2022-10-31T12:40:32;34.27;;;22.63;;
3571;SDS011;7958;53.024;12.970;2022-10-31T12:43:12;35.70;;;24.50;;
3571;SDS011;7958;53.024;12.970;2022-10-31T12:45:50;29.33;;;20.50;;
3571;SDS011;7958;53.024;12.970;2022-10-31T12:48:24;29.73;;;21.73;;
3571;SDS011;7958;53.024;12.970;2022-10-31T12:50:58;25.40;;;19.93;;
3571;SDS011;7958;53.024;12.970;2022-10-31T12:53:32;25.97;;;19.43;;
3571;SDS011;7958;53.024;12.970;2022-10-31T12:56:07;25.00;;;19.50;;
3571;SDS011;7958;53.024;12.970;2022-10-31T12:58:43;30.20;;;20.97;;
3571;SDS011;7958;53.024;12.970;2022-10-31T13:01:12;25.37;;;19.40;;
3571;SDS011;7958;53.024;12.970;2022-10-31T13:03:44;30.43;;;19.77;;
3571;SDS011;7958;53.024;12.970;2022-10-31T13:06:13;31.50;;;21.10;;
3571;SDS011;7958;53.024;12.970;2022-10-31T13:08:44;27.07;;;19.97;;
3571;SDS011;7958;53.024;12.970;2022-10-31T13:11:14;27.40;;;19.30;;
3571;SDS011;7958;53.024;12.970;2022-10-31T13:13:46;31.30;;;19.67;;
3571;SDS011;7958;53.024;12.970;2022-10-31T13:16:16;30.53;;;21.20;;
3571;SDS011;7958;53.024;12.970;2022-10-31T13:18:46;29.53;;;20.00;;
3571;SDS011;7958;53.024;12.970;2022-10-31T13:21:18;28.13;;;20.03;;
3571;SDS011;7958;53.024;12.970;2022-10-31T13:23:48;26.33;;;19.50;;
3571;SDS011;7958;53.024;12.970;2022-10-31T13:26:18;30.50;;;19.63;;
3571;SDS011;7958;53.024;12.970;2022-10-31T13:28:52;27.57;;;18.20;;
3571;SDS011;7958;53.024;12.970;2022-10-31T13:31:34;28.67;;;20.27;;
3571;SDS011;7958;53.024;12.970;2022-10-31T13:34:03;32.40;;;20.77;;
3571;SDS011;7958;53.024;12.970;2022-10-31T13:36:31;31.90;;;21.10;;
3571;SDS011;7958;53.024;12.970;2022-10-31T13:39:04;31.67;;;21.83;;
3571;SDS011;7958;53.024;12.970;2022-10-31T13:41:40;30.40;;;21.07;;
3571;SDS011;7958;53.024;12.970;2022-10-31T13:44:13;30.07;;;18.17;;
3571;SDS011;7958;53.024;12.970;2022-10-31T13:46:41;30.73;;;21.00;;
3571;SDS011;7958;53.024;12.970;2022-10-31T13:52:13;33.17;;;19.07;;
3571;SDS011;7958;53.024;12.970;2022-10-31T13:54:41;31.07;;;21.10;;
3571;SDS011;7958;53.024;12.970;2022-10-31T13:57:12;31.00;;;20.03;;
3571;SDS011;7958;53.024;12.970;2022-10-31T13:59:47;28.33;;;18.10;;
3571;SDS011;7958;53.024;12.970;2022-10-31T14:02:16;26.93;;;17.30;;
3571;SDS011;7958;53.024;12.970;2022-10-31T14:04:51;27.83;;;18.73;;
3571;SDS011;7958;53.024;12.970;2022-10-31T14:07:20;27.23;;;18.37;;
3571;SDS011;7958;53.024;12.970;2022-10-31T14:09:51;30.30;;;19.37;;
3571;SDS011;7958;53.024;12.970;2022-10-31T14:12:22;25.97;;;17.63;;
3571;SDS011;7958;53.024;12.970;2022-10-31T14:14:54;27.10;;;17.60;;
3571;SDS011;7958;53.024;12.970;2022-10-31T14:17:23;28.00;;;18.87;;
3571;SDS011;7958;53.024;12.970;2022-10-31T14:19:59;29.77;;;19.10;;
3571;SDS011;7958;53.024;12.970;2022-10-31T14:22:30;27.57;;;18.23;;
3571;SDS011;7958;53.024;12.970;2022-10-31T14:24:57;30.57;;;20.13;;
3571;SDS011;7958;53.024;12.970;2022-10-31T14:27:34;27.90;;;17.67;;
3571;SDS011;7958;53.024;12.970;2022-10-31T14:30:17;30.47;;;18.83;;
3571;SDS011;7958;53.024;12.970;2022-10-31T14:32:47;31.67;;;19.53;;
3571;SDS011;7958;53.024;12.970;2022-10-31T14:35:16;29.97;;;19.23;;
3571;SDS011;7958;53.024;12.970;2022-10-31T14:37:57;32.57;;;19.93;;
3571;SDS011;7958;53.024;12.970;2022-10-31T14:40:52;36.10;;;21.13;;
3571;SDS011;7958;53.024;12.970;2022-10-31T14:43:39;36.27;;;21.10;;
3571;SDS011;7958;53.024;12.970;2022-10-31T14:46:29;32.43;;;19.47;;
3571;SDS011;7958;53.024;12.970;2022-10-31T14:49:10;30.67;;;18.97;;
3571;SDS011;7958;53.024;12.970;2022-10-31T14:51:43;30.73;;;19.50;;
3571;SDS011;7958;53.024;12.970;2022-10-31T14:54:12;34.70;;;21.10;;
3571;SDS011;7958;53.024;12.970;2022-10-31T14:56:41;32.40;;;20.17;;
3571;SDS011;7958;53.024;12.970;2022-10-31T14:59:14;34.43;;;22.63;;
3571;SDS011;7958;53.024;12.970;2022-10-31T15:01:48;32.80;;;21.53;;
3571;SDS011;7958;53.024;12.970;2022-10-31T15:04:20;32.17;;;20.63;;
3571;SDS011;7958;53.024;12.970;2022-10-31T15:06:49;30.33;;;19.60;;
3571;SDS011;7958;53.024;12.970;2022-10-31T15:09:22;34.97;;;21.40;;
3571;SDS011;7958;53.024;12.970;2022-10-31T15:11:49;33.03;;;20.57;;
3571;SDS011;7958;53.024;12.970;2022-10-31T15:14:24;32.13;;;18.53;;